This is the latest recevied weather packets stored in our database for station/object KY4GW. If no packets are shown the sender has not sent any weather packets the latest 10 day(s).
| Time | Temp. | Humidity | Pressure | Rain* | Wind** | Luminosity | Snow |
|---|---|---|---|---|---|---|---|
| 1777655149 | 13.33° C | 61% | 1017.6 hPa | 0 mm | - | 460 W/m² | - |
| 1777654846 | 12.78° C | 62% | 1017.6 hPa | 0 mm | - | 359 W/m² | - |
| 1777654544 | 12.78° C | 65% | 1017.6 hPa | 0 mm | - | 334 W/m² | - |
| 1777654241 | 12.78° C | 65% | 1017.6 hPa | 0 mm | - | 288 W/m² | - |
| 1777653939 | 12.22° C | 66% | 1017.6 hPa | 0 mm | - | 209 W/m² | - |
| 1777653635 | 12.22° C | 68% | 1017.6 hPa | 0 mm | - | 122 W/m² | - |
| 1777653332 | 12.22° C | 70% | 1017.6 hPa | 0 mm | - | 105 W/m² | - |
| 1777653028 | 12.22° C | 71% | 1017.3 hPa | 0 mm | - | 83 W/m² | - |
| 1777652725 | 12.22° C | 70% | 1017.3 hPa | 0 mm | - | 99 W/m² | - |
| 1777652422 | 12.22° C | 68% | 1017.3 hPa | 0 mm | - | 93 W/m² | - |
| 1777652119 | 12.22° C | 69% | 1016.9 hPa | 0 mm | - | 73 W/m² | - |
| 1777651815 | 12.78° C | 68% | 1016.9 hPa | 0 mm | - | 89 W/m² | - |
| 1777651513 | 13.33° C | 64% | 1016.9 hPa | 0 mm | - | 96 W/m² | - |
| 1777651209 | 13.33° C | 65% | 1016.9 hPa | 0 mm | - | 170 W/m² | - |
| 1777650906 | 13.89° C | 62% | 1016.9 hPa | 0 mm | - | 298 W/m² | - |
| 1777650603 | 13.89° C | 64% | 1016.9 hPa | 0 mm | - | 257 W/m² | - |
| 1777650301 | 13.89° C | 60% | 1016.6 hPa | 0 mm | - | 222 W/m² | - |
| 1777649997 | 14.44° C | 61% | 1016.6 hPa | 0 mm | - | 225 W/m² | - |
| 1777649695 | 14.44° C | 61% | 1016.6 hPa | 0 mm | - | 240 W/m² | - |
| 1777649390 | 14.44° C | 57% | 1016.2 hPa | 0 mm | - | 254 W/m² | - |
| 1777649088 | 14.44° C | 58% | 1016.2 hPa | 0 mm | - | 275 W/m² | - |
| 1777648785 | 13.89° C | 57% | 1016.2 hPa | 0 mm | - | 223 W/m² | - |
| 1777648482 | 13.89° C | 55% | 1016.2 hPa | 0 mm | - | 211 W/m² | - |
| 1777648179 | 13.89° C | 57% | 1016.2 hPa | 0 mm | - | 204 W/m² | - |
| 1777647874 | 13.89° C | 57% | 1016.2 hPa | 0 mm | - | 150 W/m² | - |
* Rain latest hour (hover to see other rain measurements)
** Current wind speed in m/s (hover to see current wind gust speed)